createdAt,value
2022-08-26T00:00:07.483Z,8.38
2022-08-26T00:02:37.992Z,8.57
2022-08-26T00:05:05.996Z,9.32
2022-08-26T00:07:33.296Z,11.15
2022-08-26T00:10:04.072Z,13.40
2022-08-26T00:12:35.768Z,7.63
2022-08-26T00:15:08.873Z,9.43
2022-08-26T00:17:40.335Z,10.48
2022-08-26T00:20:14.368Z,8.52
2022-08-26T00:22:43.346Z,8.70
2022-08-26T00:25:12.321Z,10.30
2022-08-26T00:27:39.983Z,10.27
2022-08-26T00:30:11.412Z,10.27
2022-08-26T00:32:38.577Z,8.73
2022-08-26T00:35:07.895Z,8.57
2022-08-26T00:37:35.359Z,9.82
2022-08-26T00:40:05.399Z,8.85
2022-08-26T00:42:32.894Z,8.88
2022-08-26T00:45:16.283Z,11.10
2022-08-26T00:47:48.660Z,8.55
2022-08-26T00:50:22.368Z,9.27
2022-08-26T00:52:52.453Z,11.18
2022-08-26T00:55:23.967Z,7.95
2022-08-26T00:57:56.077Z,9.63
2022-08-26T01:00:27.627Z,9.68
2022-08-26T01:02:56.661Z,12.70
2022-08-26T01:05:42.186Z,10.77
2022-08-26T01:08:28.278Z,8.32
2022-08-26T01:10:57.924Z,10.05
2022-08-26T01:13:25.439Z,8.43
2022-08-26T01:15:56.650Z,9.60
2022-08-26T01:18:25.423Z,10.23
2022-08-26T01:21:11.658Z,10.07
2022-08-26T01:23:47.182Z,9.88
2022-08-26T01:26:36.953Z,9.52
2022-08-26T01:29:21.145Z,12.88
2022-08-26T01:31:57.142Z,8.30
2022-08-26T01:34:35.395Z,9.45
2022-08-26T01:37:23.996Z,12.25
2022-08-26T01:39:54.436Z,9.43
2022-08-26T01:42:24.494Z,10.85
2022-08-26T01:45:06.218Z,8.57
2022-08-26T01:47:38.104Z,8.68
2022-08-26T01:50:11.832Z,8.43
2022-08-26T01:52:45.332Z,8.57
2022-08-26T01:55:32.491Z,9.30
2022-08-26T01:58:08.260Z,8.55
2022-08-26T02:00:37.293Z,8.38
2022-08-26T02:03:21.841Z,8.90
2022-08-26T02:05:59.179Z,10.10
2022-08-26T02:08:39.055Z,11.80
2022-08-26T02:11:14.420Z,10.65
2022-08-26T02:13:51.673Z,10.63
2022-08-26T02:16:25.142Z,11.35
2022-08-26T02:18:58.198Z,9.48
2022-08-26T02:21:30.156Z,9.40
2022-08-26T02:24:11.453Z,9.00
2022-08-26T02:26:41.314Z,8.40
2022-08-26T02:29:24.541Z,11.65
2022-08-26T02:31:55.344Z,9.50
2022-08-26T02:34:35.513Z,9.18
2022-08-26T02:37:10.674Z,10.13
2022-08-26T02:39:48.095Z,7.63
2022-08-26T02:42:16.274Z,8.07
2022-08-26T02:44:47.827Z,9.63
2022-08-26T02:47:40.548Z,8.68
2022-08-26T02:50:08.689Z,7.70
2022-08-26T02:52:39.891Z,10.27
2022-08-26T02:55:12.491Z,8.50
2022-08-26T02:57:43.915Z,8.82
2022-08-26T03:04:04.999Z,7.15
2022-08-26T03:06:33.014Z,9.40
2022-08-26T03:09:00.346Z,10.57
2022-08-26T03:19:06.298Z,10.20
2022-08-26T03:21:40.505Z,7.28
2022-08-26T03:32:19.136Z,8.63
2022-08-26T05:07:35.975Z,15.10
2022-08-26T05:10:04.691Z,14.60
2022-08-26T05:12:36.329Z,10.50
2022-08-26T05:15:06.259Z,18.08
2022-08-26T05:17:33.665Z,18.00
2022-08-26T05:20:16.214Z,16.05
2022-08-26T05:22:43.655Z,21.45
2022-08-26T05:25:10.986Z,11.82
2022-08-26T05:27:38.170Z,12.63
2022-08-26T05:30:07.067Z,11.93
2022-08-26T05:32:34.408Z,11.93
2022-08-26T05:35:02.667Z,12.55
2022-08-26T05:37:29.946Z,11.50
2022-08-26T05:39:58.465Z,10.63
2022-08-26T05:42:26.204Z,9.52
2022-08-26T05:44:55.642Z,11.75
2022-08-26T05:47:24.651Z,9.35
2022-08-26T05:49:58.559Z,10.82
2022-08-26T05:52:26.150Z,10.75
2022-08-26T05:54:53.509Z,10.05
2022-08-26T05:57:20.761Z,9.00
2022-08-26T05:59:50.579Z,10.23
2022-08-26T06:02:17.892Z,11.23
2022-08-26T06:04:46.551Z,10.75
2022-08-26T06:07:14.008Z,12.02
2022-08-26T06:09:41.538Z,13.27
2022-08-26T06:12:08.957Z,14.23
2022-08-26T06:14:36.199Z,11.68
2022-08-26T06:17:04.324Z,11.43
2022-08-26T06:19:33.099Z,13.40
2022-08-26T06:22:23.486Z,12.50
2022-08-26T06:26:08.266Z,13.10
2022-08-26T06:28:45.466Z,10.48
2022-08-26T06:31:13.968Z,11.50
2022-08-26T06:33:47.558Z,10.35
2022-08-26T06:36:19.637Z,9.25
2022-08-26T06:39:01.064Z,10.27
2022-08-26T06:42:00.746Z,9.48
2022-08-26T06:44:51.371Z,12.15
2022-08-26T06:47:18.863Z,12.48
2022-08-26T06:50:04.584Z,11.05
2022-08-26T06:52:35.206Z,9.98
2022-08-26T06:58:42.963Z,10.07
2022-08-26T07:01:22.307Z,10.27
2022-08-26T07:04:00.717Z,12.00
2022-08-26T07:06:49.116Z,9.95
2022-08-26T07:09:26.321Z,13.18
2022-08-26T07:12:06.806Z,15.88
2022-08-26T07:14:43.963Z,9.35
2022-08-26T07:17:25.096Z,13.75
2022-08-26T07:20:12.007Z,22.77
2022-08-26T07:25:28.402Z,8.90
2022-08-26T07:27:56.192Z,11.00
2022-08-26T07:30:41.905Z,10.15
2022-08-26T07:33:18.475Z,14.25
2022-08-26T07:35:56.738Z,9.70
2022-08-26T07:38:44.436Z,10.48
2022-08-26T07:41:39.264Z,9.68
2022-08-26T07:44:06.561Z,28.42
2022-08-26T07:46:52.279Z,10.07
2022-08-26T07:49:23.245Z,15.50
2022-08-26T07:52:00.217Z,16.70
2022-08-26T07:54:30.561Z,18.83
2022-08-26T07:58:02.152Z,11.43
2022-08-26T08:00:32.946Z,20.88
2022-08-26T08:03:08.996Z,14.75
2022-08-26T08:05:44.183Z,8.95
2022-08-26T08:08:26.875Z,9.10
2022-08-26T08:11:33.560Z,18.02
2022-08-26T08:14:31.475Z,19.38
2022-08-26T08:16:59.327Z,9.68
2022-08-26T08:19:42.062Z,10.85
2022-08-26T08:23:13.929Z,11.30
2022-08-26T08:26:35.153Z,10.70
2022-08-26T08:29:05.694Z,10.68
2022-08-26T08:37:10.659Z,8.88
2022-08-26T08:40:37.179Z,8.68
2022-08-26T08:43:07.293Z,7.57
2022-08-26T08:45:42.647Z,7.03
2022-08-26T08:48:28.089Z,9.48
2022-08-26T08:51:08.408Z,7.50
2022-08-26T08:53:49.707Z,8.90
2022-08-26T08:56:41.018Z,7.55
2022-08-26T08:59:25.247Z,8.38
2022-08-26T09:02:17.152Z,6.90
2022-08-26T09:05:15.505Z,6.60
2022-08-26T09:07:49.976Z,6.60
2022-08-26T09:10:31.323Z,6.25
2022-08-26T09:13:00.305Z,6.95
2022-08-26T09:15:54.920Z,6.35
2022-08-26T09:18:33.918Z,6.35
2022-08-26T09:21:05.968Z,6.47
2022-08-26T09:23:46.211Z,5.88
2022-08-26T09:26:43.573Z,5.47
2022-08-26T09:29:27.770Z,5.47
2022-08-26T09:32:21.347Z,5.55
2022-08-26T09:35:20.208Z,5.80
2022-08-26T09:40:23.668Z,5.75
2022-08-26T09:43:32.858Z,5.95
2022-08-26T09:46:53.933Z,6.45
2022-08-26T09:49:29.907Z,7.22
2022-08-26T09:52:29.162Z,7.00
2022-08-26T09:55:20.579Z,7.68
2022-08-26T09:57:55.708Z,7.50
2022-08-26T10:00:38.999Z,7.30
2022-08-26T10:03:35.408Z,6.95
2022-08-26T10:06:06.648Z,5.90
2022-08-26T10:08:42.467Z,6.18
2022-08-26T10:11:58.393Z,5.97
2022-08-26T10:15:38.126Z,5.57
2022-08-26T10:18:22.919Z,5.47
2022-08-26T10:21:25.276Z,4.97
2022-08-26T10:24:02.157Z,5.25
2022-08-26T10:27:51.110Z,5.43
2022-08-26T10:30:22.287Z,5.47
2022-08-26T10:33:12.448Z,5.30
2022-08-26T10:36:12.320Z,5.60
2022-08-26T10:39:15.841Z,5.07
2022-08-26T10:41:56.590Z,4.75
2022-08-26T10:48:48.421Z,4.38
2022-08-26T10:51:23.418Z,4.90
2022-08-26T10:54:03.260Z,5.07
2022-08-26T10:57:09.766Z,5.28
2022-08-26T10:59:56.755Z,5.03
2022-08-26T11:02:40.703Z,4.70
2022-08-26T11:05:23.586Z,4.95
2022-08-26T11:07:54.959Z,5.28
2022-08-26T11:10:23.094Z,4.22
2022-08-26T11:12:56.997Z,4.93
2022-08-26T11:15:43.424Z,4.93
2022-08-26T11:18:33.183Z,4.70
2022-08-26T11:21:01.493Z,4.40
2022-08-26T11:23:28.786Z,4.30
2022-08-26T11:25:56.074Z,4.53
2022-08-26T11:28:44.858Z,6.05
2022-08-26T11:31:32.059Z,5.57
2022-08-26T11:34:00.613Z,5.32
2022-08-26T11:36:46.032Z,5.85
2022-08-26T11:39:16.723Z,6.22
2022-08-26T11:41:52.853Z,5.97
2022-08-26T11:44:36.151Z,5.63
2022-08-26T11:47:03.907Z,6.32
2022-08-26T11:49:33.390Z,6.20
2022-08-26T11:52:20.971Z,6.38
2022-08-26T11:55:09.445Z,7.40
2022-08-26T11:57:44.892Z,7.13
2022-08-26T12:00:22.477Z,10.80
2022-08-26T12:02:52.461Z,7.35
2022-08-26T12:05:34.789Z,6.00
2022-08-26T12:08:11.883Z,7.65
2022-08-26T12:10:39.783Z,7.93
2022-08-26T12:13:08.187Z,9.13
2022-08-26T12:15:37.941Z,12.13
2022-08-26T12:18:28.816Z,7.95
2022-08-26T12:20:58.794Z,8.55
2022-08-26T12:23:34.993Z,6.40
2022-08-26T12:26:28.567Z,6.90
2022-08-26T12:28:59.295Z,7.32
2022-08-26T12:31:31.691Z,8.50
2022-08-26T12:34:02.563Z,7.13
2022-08-26T12:36:33.299Z,9.27
2022-08-26T12:39:15.531Z,7.03
2022-08-26T12:41:49.748Z,7.10
2022-08-26T12:44:53.718Z,5.95
2022-08-26T12:47:41.769Z,6.13
2022-08-26T12:50:18.874Z,6.38
2022-08-26T12:53:04.376Z,7.10
2022-08-26T12:56:27.935Z,5.45
2022-08-26T12:59:04.419Z,5.05
2022-08-26T13:01:43.118Z,5.45
2022-08-26T13:04:32.306Z,5.75
2022-08-26T13:07:18.983Z,5.57
2022-08-26T13:09:46.332Z,5.80
2022-08-26T13:12:24.324Z,6.30
2022-08-26T13:14:51.665Z,5.38
2022-08-26T13:17:21.292Z,6.00
2022-08-26T13:19:48.681Z,5.47
2022-08-26T13:22:22.532Z,8.98
2022-08-26T13:24:55.557Z,5.07
2022-08-26T13:27:26.331Z,5.00
2022-08-26T13:29:55.098Z,4.70
2022-08-26T13:32:37.258Z,5.40
2022-08-26T13:35:06.022Z,7.35
2022-08-26T13:37:34.980Z,5.10
2022-08-26T13:40:05.788Z,8.50
2022-08-26T13:42:33.309Z,5.47
2022-08-26T13:45:02.437Z,4.88
2022-08-26T13:47:29.933Z,5.15
2022-08-26T13:50:15.613Z,5.80
2022-08-26T13:52:42.932Z,5.43
2022-08-26T13:55:11.110Z,5.07
2022-08-26T13:57:38.651Z,5.60
2022-08-26T14:00:07.422Z,4.57
2022-08-26T14:02:38.386Z,5.05
2022-08-26T14:05:06.237Z,5.47
2022-08-26T14:07:33.817Z,5.15
2022-08-26T14:10:01.667Z,5.65
2022-08-26T14:12:29.398Z,6.15
2022-08-26T14:14:56.726Z,5.43
2022-08-26T14:17:26.380Z,5.43
2022-08-26T14:19:58.055Z,5.75
2022-08-26T14:22:25.473Z,5.57
2022-08-26T14:24:52.796Z,5.43
2022-08-26T14:27:20.138Z,5.50
2022-08-26T14:29:47.463Z,6.00
2022-08-26T14:32:33.163Z,5.68
2022-08-26T14:35:17.916Z,9.52
2022-08-26T14:37:45.456Z,20.80
2022-08-26T14:40:14.416Z,76.18
2022-08-26T14:42:45.609Z,29.35
2022-08-26T14:45:23.237Z,69.68
2022-08-26T14:47:52.459Z,140.70
2022-08-26T14:50:38.781Z,46.15
2022-08-26T14:53:24.679Z,27.50
2022-08-26T14:55:51.843Z,24.20
2022-08-26T14:58:19.063Z,12.13
2022-08-26T15:00:46.431Z,7.47
2022-08-26T15:05:47.982Z,11.93
2022-08-26T15:08:20.744Z,22.05
2022-08-26T15:10:48.266Z,14.82
2022-08-26T15:13:15.869Z,15.75
2022-08-26T15:15:43.251Z,12.95
2022-08-26T15:18:10.699Z,24.17
2022-08-26T15:20:44.686Z,20.00
2022-08-26T15:23:15.054Z,16.02
2022-08-26T15:25:45.861Z,32.45
2022-08-26T15:28:13.152Z,15.77
2022-08-26T15:30:40.618Z,14.65
2022-08-26T15:33:15.184Z,12.57
2022-08-26T15:35:43.528Z,18.80
2022-08-26T15:38:16.919Z,7.78
2022-08-26T15:40:44.688Z,11.35
2022-08-26T15:43:27.746Z,12.13
2022-08-26T15:45:55.680Z,11.57
2022-08-26T15:48:24.612Z,10.00
2022-08-26T15:50:56.837Z,8.02
2022-08-26T15:53:24.644Z,8.85
2022-08-26T15:55:54.762Z,8.45
2022-08-26T15:58:25.127Z,7.35
2022-08-26T16:00:55.752Z,10.27
2022-08-26T16:03:23.007Z,11.18
2022-08-26T16:05:50.297Z,5.63
2022-08-26T16:08:17.832Z,9.77
2022-08-26T16:10:49.982Z,6.03
2022-08-26T16:13:19.964Z,8.23
2022-08-26T16:15:48.233Z,9.43
2022-08-26T16:18:16.585Z,5.50
2022-08-26T16:21:12.321Z,5.38
2022-08-26T16:23:39.833Z,4.32
2022-08-26T16:26:12.532Z,5.43
2022-08-26T16:28:40.050Z,6.70
2022-08-26T16:31:07.581Z,4.32
2022-08-26T16:33:34.799Z,4.30
2022-08-26T16:36:02.106Z,7.65
2022-08-26T16:38:29.258Z,6.57
2022-08-26T16:40:56.480Z,7.13
2022-08-26T16:43:23.632Z,4.18
2022-08-26T16:45:50.860Z,7.20
2022-08-26T16:48:18.171Z,7.72
2022-08-26T16:50:45.543Z,7.30
2022-08-26T16:55:56.540Z,13.45
2022-08-26T16:58:23.785Z,7.63
2022-08-26T17:00:50.972Z,9.50
2022-08-26T17:03:18.179Z,12.52
2022-08-26T17:05:45.421Z,4.80
2022-08-26T17:08:15.492Z,5.18
2022-08-26T17:10:56.306Z,9.10
2022-08-26T17:13:35.108Z,7.00
2022-08-26T17:16:06.437Z,4.95
2022-08-26T17:18:34.952Z,7.35
2022-08-26T17:21:05.931Z,6.78
2022-08-26T17:23:33.602Z,6.03
2022-08-26T17:26:03.030Z,6.03
2022-08-26T17:28:30.341Z,5.68
2022-08-26T17:30:58.596Z,9.52
2022-08-26T17:33:26.788Z,5.00
2022-08-26T17:35:54.962Z,8.48
2022-08-26T17:38:23.260Z,8.45
2022-08-26T17:40:50.475Z,6.93
2022-08-26T17:43:18.463Z,8.73
2022-08-26T17:45:45.647Z,10.45
2022-08-26T17:48:13.565Z,10.52
2022-08-26T17:50:42.364Z,11.07
2022-08-26T17:53:12.705Z,10.10
2022-08-26T17:55:47.935Z,9.27
2022-08-26T17:58:17.273Z,9.05
2022-08-26T18:00:47.118Z,10.02
2022-08-26T18:03:15.081Z,10.68
2022-08-26T18:05:47.188Z,8.85
2022-08-26T18:08:14.404Z,9.48
2022-08-26T18:10:42.883Z,15.30
2022-08-26T18:13:10.571Z,12.20
2022-08-26T18:15:46.146Z,14.15
2022-08-26T18:18:14.583Z,12.48
2022-08-26T18:20:43.850Z,12.57
2022-08-26T18:23:12.878Z,10.40
2022-08-26T18:25:44.327Z,14.98
2022-08-26T18:28:11.555Z,10.43
2022-08-26T18:30:38.769Z,8.00
2022-08-26T18:33:05.987Z,7.47
2022-08-26T18:35:37.546Z,5.93
2022-08-26T18:38:11.097Z,6.72
2022-08-26T18:40:40.961Z,5.15
2022-08-26T18:43:08.883Z,5.03
2022-08-26T18:45:36.354Z,9.88
2022-08-26T18:48:04.723Z,5.10
2022-08-26T18:50:31.848Z,4.43
2022-08-26T18:52:59.030Z,4.72
2022-08-26T18:55:26.152Z,6.95
2022-08-26T18:57:53.328Z,6.68
2022-08-26T19:00:20.462Z,7.90
2022-08-26T19:02:52.101Z,8.80
2022-08-26T19:05:23.195Z,11.68
2022-08-26T19:07:51.595Z,11.52
2022-08-26T19:10:18.685Z,11.38
2022-08-26T19:12:45.892Z,14.90
2022-08-26T19:15:19.169Z,9.23
2022-08-26T19:17:58.320Z,14.18
2022-08-26T19:20:32.391Z,6.47
2022-08-26T19:23:28.113Z,9.57
2022-08-26T19:26:03.920Z,6.70
2022-08-26T19:28:36.005Z,5.82
2022-08-26T19:31:04.402Z,9.35
2022-08-26T19:33:34.606Z,7.50
2022-08-26T19:36:06.531Z,6.07
2022-08-26T19:38:38.270Z,6.68
2022-08-26T19:41:36.920Z,5.97
2022-08-26T19:44:12.327Z,7.93
2022-08-26T19:46:41.457Z,10.18
2022-08-26T19:49:22.786Z,9.30
2022-08-26T19:51:54.615Z,11.85
2022-08-26T19:54:33.765Z,15.35
2022-08-26T19:57:12.499Z,11.45
2022-08-26T19:59:44.671Z,17.02
2022-08-26T20:02:30.993Z,12.50
2022-08-26T20:05:07.559Z,13.40
2022-08-26T20:07:38.730Z,18.35
2022-08-26T20:10:10.028Z,18.17
2022-08-26T20:12:38.485Z,17.15
2022-08-26T20:15:07.019Z,16.00
2022-08-26T20:17:35.294Z,11.35
2022-08-26T20:20:34.565Z,20.92
2022-08-26T20:23:04.524Z,14.40
2022-08-26T20:25:33.983Z,17.67
2022-08-26T20:28:12.366Z,16.42
2022-08-26T20:30:44.283Z,9.85
2022-08-26T20:33:14.759Z,8.77
2022-08-26T20:35:48.137Z,6.45
2022-08-26T20:38:32.552Z,14.73
2022-08-26T20:40:59.807Z,11.25
2022-08-26T20:43:27.114Z,8.60
2022-08-26T20:45:54.402Z,8.30
2022-08-26T20:48:21.769Z,10.80
2022-08-26T20:50:48.927Z,20.02
2022-08-26T20:53:16.220Z,16.95
2022-08-26T20:55:43.507Z,16.20
2022-08-26T20:58:10.755Z,15.85
2022-08-26T21:00:38.643Z,20.35
2022-08-26T21:03:05.900Z,11.20
2022-08-26T21:05:34.568Z,15.65
2022-08-26T21:08:01.779Z,17.63
2022-08-26T21:10:30.385Z,15.60
2022-08-26T21:12:58.107Z,13.30
2022-08-26T21:15:25.457Z,12.32
2022-08-26T21:17:52.719Z,12.75
2022-08-26T21:20:21.197Z,7.35
2022-08-26T21:22:48.761Z,11.85
2022-08-26T21:25:16.539Z,9.02
2022-08-26T21:27:43.840Z,14.02
2022-08-26T21:30:13.106Z,8.10
2022-08-26T21:32:40.437Z,12.35
2022-08-26T21:35:08.708Z,18.67
2022-08-26T21:37:35.860Z,20.98
2022-08-26T21:40:04.964Z,18.35
2022-08-26T21:42:34.021Z,13.40
2022-08-26T21:45:02.591Z,11.75
2022-08-26T21:47:32.123Z,10.35
2022-08-26T21:50:00.009Z,14.48
2022-08-26T21:52:27.225Z,18.55
2022-08-26T21:54:59.888Z,20.75
2022-08-26T21:57:28.625Z,12.90
2022-08-26T21:59:56.227Z,11.13
2022-08-26T22:02:25.133Z,9.15
2022-08-26T22:04:52.673Z,21.75
2022-08-26T22:07:21.269Z,11.90
2022-08-26T22:09:49.667Z,12.02
2022-08-26T22:12:18.421Z,20.52
2022-08-26T22:14:45.709Z,16.00
2022-08-26T22:17:13.215Z,11.85
2022-08-26T22:19:46.372Z,13.80
2022-08-26T22:22:14.763Z,22.73
2022-08-26T22:24:43.359Z,15.52
2022-08-26T22:27:11.979Z,13.35
2022-08-26T22:29:39.747Z,15.95
2022-08-26T22:32:08.109Z,13.52
2022-08-26T22:34:35.366Z,18.08
2022-08-26T22:37:03.216Z,23.25
2022-08-26T22:39:31.265Z,13.93
2022-08-26T22:41:58.700Z,28.40
2022-08-26T22:44:44.109Z,17.80
2022-08-26T22:47:11.280Z,10.80
2022-08-26T22:49:38.524Z,23.27
2022-08-26T22:52:05.686Z,22.02
2022-08-26T22:54:34.953Z,16.42
2022-08-26T22:57:02.344Z,8.80
2022-08-26T22:59:29.610Z,30.35
2022-08-26T23:01:57.306Z,16.90
2022-08-26T23:04:24.592Z,17.30
2022-08-26T23:06:51.836Z,12.65
2022-08-26T23:09:19.508Z,22.33
2022-08-26T23:11:48.472Z,14.98
2022-08-26T23:14:18.147Z,14.40
2022-08-26T23:16:45.432Z,25.15
2022-08-26T23:19:14.553Z,17.10
2022-08-26T23:21:42.209Z,21.70
2022-08-26T23:24:10.527Z,23.65
2022-08-26T23:26:39.113Z,23.77
2022-08-26T23:29:08.411Z,23.23
2022-08-26T23:31:38.386Z,24.85
2022-08-26T23:34:24.664Z,23.38
2022-08-26T23:36:52.945Z,18.85
2022-08-26T23:39:21.164Z,19.73
2022-08-26T23:41:48.673Z,19.70
2022-08-26T23:44:35.013Z,18.77
2022-08-26T23:47:03.353Z,19.30
2022-08-26T23:49:31.400Z,21.20
2022-08-26T23:52:17.182Z,16.00
2022-08-26T23:54:44.794Z,17.60
2022-08-26T23:57:12.012Z,17.75
2022-08-26T23:59:39.271Z,17.48
